DLH162 EYVI-EETN
Flight info
| Callsign | DLH162 |
|---|---|
| Flight time | 0h 50m |
| Altitude | 34000 |
| Route | TAGOL DCT LUNIT DCT TUSAS DCT DOLAT DCT KEMET |
| Aircraft | A346/H-SDE2E3FGHIJ3J4J5M1RWXY/LB1D1 |
Departure
| Time | 2026-05-06 20:46 |
|---|---|
| Airport | Vilnius International Airport (EYVI) |
Arrival
| Time | 2026-05-06 21:36 |
|---|---|
| Airport | Lennart Meri Tallinn Airport (EETN) |
| Time | Latitude | Longitude | Altitude | Speed | Heading |
|---|---|---|---|---|---|
| 2026-05-06 20:31 | 54.64468 | 25.28519 | 655 ft | 0 kts | 176° |
| 2026-05-06 20:39 | 54.64453 | 25.28522 | 659 ft | 5 kts | 172° |
| 2026-05-06 20:39 | 54.64422 | 25.28557 | 659 ft | 6 kts | 112° |
| 2026-05-06 20:39 | 54.64414 | 25.28604 | 657 ft | 1 kts | 116° |
| 2026-05-06 20:40 | 54.64413 | 25.28608 | 658 ft | 1 kts | 121° |
| 2026-05-06 20:40 | 54.64406 | 25.28622 | 658 ft | 3 kts | 136° |
| 2026-05-06 20:40 | 54.64371 | 25.28653 | 659 ft | 8 kts | 165° |
| 2026-05-06 20:40 | 54.64291 | 25.28672 | 658 ft | 15 kts | 173° |
| 2026-05-06 20:41 | 54.64167 | 25.28696 | 660 ft | 20 kts | 174° |
| 2026-05-06 20:41 | 54.64008 | 25.28686 | 654 ft | 26 kts | 199° |
| 2026-05-06 20:41 | 54.63824 | 25.28556 | 640 ft | 31 kts | 201° |
| 2026-05-06 20:41 | 54.63609 | 25.28408 | 633 ft | 36 kts | 201° |
| 2026-05-06 20:42 | 54.63371 | 25.28245 | 624 ft | 34 kts | 201° |
| 2026-05-06 20:42 | 54.63189 | 25.28117 | 628 ft | 28 kts | 202° |
| 2026-05-06 20:42 | 54.63024 | 25.28005 | 625 ft | 23 kts | 203° |
| 2026-05-06 20:42 | 54.62891 | 25.27905 | 623 ft | 19 kts | 203° |
| 2026-05-06 20:43 | 54.62789 | 25.27831 | 617 ft | 16 kts | 201° |
| 2026-05-06 20:43 | 54.62698 | 25.27772 | 617 ft | 13 kts | 200° |
| 2026-05-06 20:43 | 54.62670 | 25.27754 | 617 ft | 2 kts | 200° |
| 2026-05-06 20:43 | 54.62612 | 25.27716 | 618 ft | 14 kts | 201° |
| 2026-05-06 20:44 | 54.62519 | 25.27678 | 624 ft | 13 kts | 164° |
| 2026-05-06 20:44 | 54.62444 | 25.27763 | 624 ft | 13 kts | 136° |
| 2026-05-06 20:44 | 54.62431 | 25.27795 | 626 ft | 6 kts | 117° |
| 2026-05-06 20:44 | 54.62427 | 25.27859 | 623 ft | 8 kts | 68° |
| 2026-05-06 20:45 | 54.62468 | 25.27915 | 623 ft | 0 kts | 24° |
| 2026-05-06 20:45 | 54.62470 | 25.27917 | 621 ft | 7 kts | 24° |
| 2026-05-06 20:45 | 54.62738 | 25.28102 | 617 ft | 77 kts | 20° |
| 2026-05-06 20:45 | 54.63456 | 25.28598 | 629 ft | 142 kts | 22° |
| 2026-05-06 20:46 | 54.64533 | 25.29351 | 758 ft | 184 kts | 22° |
| 2026-05-06 20:46 | 54.65717 | 25.30238 | 1572 ft | 185 kts | 25° |
| 2026-05-06 20:46 | 54.66956 | 25.31152 | 2154 ft | 207 kts | 21° |
| 2026-05-06 20:46 | 54.68392 | 25.32201 | 2461 ft | 241 kts | 21° |
| 2026-05-06 20:47 | 54.70040 | 25.33428 | 2723 ft | 271 kts | 21° |
| 2026-05-06 20:47 | 54.71798 | 25.34714 | 2964 ft | 277 kts | 21° |
| 2026-05-06 20:47 | 54.73584 | 25.36024 | 3218 ft | 279 kts | 21° |
| 2026-05-06 20:47 | 54.75371 | 25.37357 | 3472 ft | 280 kts | 21° |
| 2026-05-06 20:48 | 54.77160 | 25.38712 | 3721 ft | 281 kts | 21° |
| 2026-05-06 20:48 | 54.78951 | 25.40079 | 3973 ft | 282 kts | 21° |
| 2026-05-06 20:48 | 54.80747 | 25.41463 | 4229 ft | 283 kts | 21° |
| 2026-05-06 20:48 | 54.82545 | 25.42862 | 4487 ft | 283 kts | 21° |
| 2026-05-06 20:49 | 54.84345 | 25.44275 | 4730 ft | 284 kts | 21° |
| 2026-05-06 20:49 | 54.86149 | 25.45702 | 4979 ft | 286 kts | 21° |
| 2026-05-06 20:49 | 54.87963 | 25.47144 | 5235 ft | 287 kts | 21° |
| 2026-05-06 20:49 | 54.89780 | 25.48599 | 5476 ft | 289 kts | 21° |
| 2026-05-06 20:50 | 54.91611 | 25.50072 | 5498 ft | 293 kts | 21° |
| 2026-05-06 20:50 | 54.93495 | 25.51587 | 6026 ft | 302 kts | 21° |
| 2026-05-06 20:50 | 54.95393 | 25.53114 | 7151 ft | 299 kts | 21° |
| 2026-05-06 20:50 | 54.97281 | 25.54662 | 8214 ft | 302 kts | 22° |
| 2026-05-06 20:51 | 54.99239 | 25.56029 | 9118 ft | 305 kts | 7° |
| 2026-05-06 20:51 | 55.01331 | 25.56118 | 9996 ft | 301 kts | 347° |
| 2026-05-06 20:51 | 55.03425 | 25.55528 | 10698 ft | 311 kts | 343° |
| 2026-05-06 20:51 | 55.05610 | 25.54764 | 11247 ft | 329 kts | 342° |
| 2026-05-06 20:52 | 55.07911 | 25.53916 | 11732 ft | 347 kts | 342° |
| 2026-05-06 20:52 | 55.10334 | 25.53002 | 12238 ft | 366 kts | 342° |
| 2026-05-06 20:52 | 55.12882 | 25.52024 | 12738 ft | 383 kts | 342° |
| 2026-05-06 20:52 | 55.15512 | 25.51009 | 13527 ft | 391 kts | 342° |
| 2026-05-06 20:53 | 55.18193 | 25.49993 | 14323 ft | 396 kts | 342° |
| 2026-05-06 20:53 | 55.20905 | 25.48967 | 15166 ft | 400 kts | 342° |
| 2026-05-06 20:53 | 55.23631 | 25.47931 | 16049 ft | 403 kts | 342° |
| 2026-05-06 20:53 | 55.26375 | 25.46880 | 16911 ft | 405 kts | 342° |
| 2026-05-06 20:54 | 55.29102 | 25.45831 | 17760 ft | 409 kts | 342° |
| 2026-05-06 20:54 | 55.31894 | 25.44753 | 18521 ft | 413 kts | 342° |
| 2026-05-06 20:54 | 55.34714 | 25.43667 | 19180 ft | 417 kts | 342° |
| 2026-05-06 20:54 | 55.37569 | 25.42571 | 19850 ft | 423 kts | 342° |
| 2026-05-06 20:55 | 55.40458 | 25.41465 | 20514 ft | 428 kts | 342° |
| 2026-05-06 20:55 | 55.43387 | 25.40347 | 21170 ft | 433 kts | 342° |
| 2026-05-06 20:55 | 55.46346 | 25.39219 | 21828 ft | 438 kts | 342° |
| 2026-05-06 20:55 | 55.49344 | 25.38080 | 22478 ft | 443 kts | 342° |
| 2026-05-06 20:56 | 55.52374 | 25.36930 | 23113 ft | 448 kts | 342° |
| 2026-05-06 20:56 | 55.55443 | 25.35769 | 23708 ft | 453 kts | 342° |
| 2026-05-06 20:56 | 55.58540 | 25.34625 | 24340 ft | 456 kts | 342° |
| 2026-05-06 20:56 | 55.61656 | 25.33510 | 25016 ft | 458 kts | 342° |
| 2026-05-06 20:57 | 55.64785 | 25.32410 | 25615 ft | 460 kts | 342° |
| 2026-05-06 20:57 | 55.67944 | 25.31308 | 26176 ft | 464 kts | 342° |
| 2026-05-06 20:57 | 55.71124 | 25.30205 | 26755 ft | 467 kts | 342° |
| 2026-05-06 20:57 | 55.74306 | 25.29110 | 27515 ft | 465 kts | 342° |
| 2026-05-06 20:58 | 55.77476 | 25.28035 | 28370 ft | 462 kts | 342° |
| 2026-05-06 20:58 | 55.79565 | 25.27338 | 28915 ft | 460 kts | 342° |
| 2026-05-06 20:58 | 55.83763 | 25.25957 | 30006 ft | 457 kts | 342° |
| 2026-05-06 20:58 | 55.86885 | 25.24945 | 30675 ft | 456 kts | 342° |
| 2026-05-06 20:59 | 55.90012 | 25.23982 | 31294 ft | 456 kts | 343° |
| 2026-05-06 20:59 | 55.93136 | 25.23069 | 31911 ft | 454 kts | 343° |
| 2026-05-06 20:59 | 55.95197 | 25.22462 | 32315 ft | 454 kts | 343° |
| 2026-05-06 20:59 | 55.98312 | 25.21542 | 32873 ft | 455 kts | 343° |
| 2026-05-06 21:00 | 56.01440 | 25.20614 | 33335 ft | 457 kts | 343° |
| 2026-05-06 21:00 | 56.04589 | 25.19679 | 33816 ft | 459 kts | 343° |
| 2026-05-06 21:00 | 56.07746 | 25.18742 | 33874 ft | 461 kts | 343° |
| 2026-05-06 21:01 | 56.14079 | 25.16898 | 33882 ft | 463 kts | 345° |
| 2026-05-06 21:01 | 56.20541 | 25.15974 | 33883 ft | 470 kts | 352° |
| 2026-05-06 21:02 | 56.27081 | 25.16149 | 33889 ft | 469 kts | 355° |
| 2026-05-06 21:02 | 56.33600 | 25.16493 | 33889 ft | 468 kts | 355° |
| 2026-05-06 21:03 | 56.40109 | 25.16795 | 33895 ft | 468 kts | 354° |
| 2026-05-06 21:03 | 56.46612 | 25.17058 | 33917 ft | 467 kts | 353° |
| 2026-05-06 21:04 | 56.53068 | 25.16589 | 33903 ft | 464 kts | 349° |
| 2026-05-06 21:04 | 56.59510 | 25.15793 | 33909 ft | 464 kts | 349° |
| 2026-05-06 21:05 | 56.65956 | 25.15001 | 33936 ft | 465 kts | 349° |
| 2026-05-06 21:05 | 56.72411 | 25.14223 | 33921 ft | 465 kts | 349° |
| 2026-05-06 21:06 | 56.78864 | 25.13445 | 33925 ft | 465 kts | 349° |
| 2026-05-06 21:06 | 56.85326 | 25.12668 | 33921 ft | 466 kts | 349° |
| 2026-05-06 21:07 | 56.91795 | 25.11891 | 33919 ft | 466 kts | 349° |
| 2026-05-06 21:07 | 56.98261 | 25.11111 | 33931 ft | 466 kts | 349° |
| 2026-05-06 21:08 | 57.04671 | 25.10334 | 33931 ft | 466 kts | 349° |
| 2026-05-06 21:08 | 57.11145 | 25.09542 | 33952 ft | 466 kts | 349° |
| 2026-05-06 21:09 | 57.17623 | 25.08753 | 33937 ft | 467 kts | 349° |
| 2026-05-06 21:09 | 57.24104 | 25.07952 | 33952 ft | 466 kts | 350° |
| 2026-05-06 21:10 | 57.30579 | 25.07160 | 33949 ft | 467 kts | 350° |
| 2026-05-06 21:10 | 57.37055 | 25.06365 | 33977 ft | 466 kts | 350° |
| 2026-05-06 21:11 | 57.43531 | 25.05561 | 33937 ft | 464 kts | 350° |
| 2026-05-06 21:11 | 57.46746 | 25.05165 | 33360 ft | 464 kts | 350° |
| 2026-05-06 21:11 | 57.49998 | 25.04753 | 32298 ft | 474 kts | 350° |
| 2026-05-06 21:11 | 57.53306 | 25.04333 | 31557 ft | 477 kts | 351° |
| 2026-05-06 21:12 | 57.56608 | 25.03923 | 31013 ft | 475 kts | 351° |
| 2026-05-06 21:12 | 57.59900 | 25.03515 | 30458 ft | 477 kts | 351° |
| 2026-05-06 21:12 | 57.63282 | 25.03083 | 30340 ft | 492 kts | 351° |
| 2026-05-06 21:12 | 57.66691 | 25.02658 | 30977 ft | 490 kts | 351° |
| 2026-05-06 21:13 | 57.70092 | 25.02241 | 31438 ft | 489 kts | 351° |
| 2026-05-06 21:13 | 57.73479 | 25.01822 | 31856 ft | 486 kts | 351° |
| 2026-05-06 21:13 | 57.76824 | 25.01406 | 32176 ft | 477 kts | 351° |
| 2026-05-06 21:13 | 57.80095 | 25.00999 | 32001 ft | 465 kts | 351° |
| 2026-05-06 21:14 | 57.83288 | 25.00600 | 31617 ft | 455 kts | 350° |
| 2026-05-06 21:14 | 57.86424 | 25.00205 | 30969 ft | 449 kts | 350° |
| 2026-05-06 21:14 | 57.89538 | 24.99806 | 29913 ft | 450 kts | 350° |
| 2026-05-06 21:14 | 57.92672 | 24.99398 | 29226 ft | 451 kts | 350° |
| 2026-05-06 21:15 | 57.95806 | 24.98994 | 28508 ft | 452 kts | 350° |
| 2026-05-06 21:15 | 57.98944 | 24.98482 | 27751 ft | 453 kts | 347° |
| 2026-05-06 21:15 | 58.02043 | 24.97537 | 27004 ft | 451 kts | 343° |
| 2026-05-06 21:15 | 58.05092 | 24.96156 | 26261 ft | 451 kts | 339° |
| 2026-05-06 21:16 | 58.08120 | 24.94543 | 25555 ft | 452 kts | 338° |
| 2026-05-06 21:16 | 58.11120 | 24.92883 | 25065 ft | 448 kts | 338° |
| 2026-05-06 21:16 | 58.14097 | 24.91229 | 24594 ft | 443 kts | 338° |
| 2026-05-06 21:16 | 58.17046 | 24.89591 | 24098 ft | 441 kts | 338° |
| 2026-05-06 21:17 | 58.19979 | 24.87964 | 23603 ft | 438 kts | 338° |
| 2026-05-06 21:17 | 58.22896 | 24.86348 | 23047 ft | 435 kts | 338° |
| 2026-05-06 21:17 | 58.25786 | 24.84745 | 22500 ft | 431 kts | 338° |
| 2026-05-06 21:17 | 58.28651 | 24.83157 | 21968 ft | 427 kts | 338° |
| 2026-05-06 21:18 | 58.31495 | 24.81578 | 21464 ft | 424 kts | 338° |
| 2026-05-06 21:18 | 58.34313 | 24.80008 | 20970 ft | 420 kts | 338° |
| 2026-05-06 21:18 | 58.37104 | 24.78451 | 20510 ft | 416 kts | 339° |
| 2026-05-06 21:18 | 58.39868 | 24.76911 | 20010 ft | 412 kts | 339° |
| 2026-05-06 21:19 | 58.42614 | 24.75378 | 19500 ft | 409 kts | 339° |
| 2026-05-06 21:19 | 58.45333 | 24.73859 | 18787 ft | 405 kts | 339° |
| 2026-05-06 21:19 | 58.48024 | 24.72350 | 17889 ft | 400 kts | 339° |
| 2026-05-06 21:19 | 58.50675 | 24.70862 | 17020 ft | 394 kts | 339° |
| 2026-05-06 21:20 | 58.53372 | 24.69335 | 16319 ft | 418 kts | 339° |
| 2026-05-06 21:20 | 58.56200 | 24.67732 | 16325 ft | 423 kts | 340° |
| 2026-05-06 21:20 | 58.58972 | 24.66179 | 16268 ft | 407 kts | 340° |
| 2026-05-06 21:20 | 58.61626 | 24.64694 | 15833 ft | 389 kts | 339° |
| 2026-05-06 21:21 | 58.64195 | 24.63243 | 14995 ft | 382 kts | 340° |
| 2026-05-06 21:21 | 58.66732 | 24.61797 | 14118 ft | 379 kts | 340° |
| 2026-05-06 21:21 | 58.69213 | 24.60383 | 13248 ft | 375 kts | 341° |
| 2026-05-06 21:21 | 58.71768 | 24.59658 | 12391 ft | 372 kts | 1° |
| 2026-05-06 21:22 | 58.74259 | 24.60713 | 11876 ft | 364 kts | 22° |
| 2026-05-06 21:22 | 58.76513 | 24.62950 | 11594 ft | 364 kts | 28° |
| 2026-05-06 21:22 | 58.78715 | 24.65331 | 11220 ft | 362 kts | 28° |
| 2026-05-06 21:22 | 58.80899 | 24.67703 | 10858 ft | 359 kts | 28° |
| 2026-05-06 21:23 | 58.83070 | 24.70045 | 10561 ft | 353 kts | 28° |
| 2026-05-06 21:23 | 58.85173 | 24.72298 | 10469 ft | 339 kts | 28° |
| 2026-05-06 21:23 | 58.87198 | 24.74461 | 10336 ft | 327 kts | 28° |
| 2026-05-06 21:23 | 58.89150 | 24.76545 | 10258 ft | 313 kts | 28° |
| 2026-05-06 21:24 | 58.91022 | 24.78542 | 10164 ft | 301 kts | 28° |
| 2026-05-06 21:24 | 58.92819 | 24.80461 | 10082 ft | 289 kts | 28° |
| 2026-05-06 21:24 | 58.94544 | 24.82305 | 10005 ft | 278 kts | 28° |
| 2026-05-06 21:24 | 58.96235 | 24.84114 | 9661 ft | 278 kts | 29° |
| 2026-05-06 21:25 | 58.97927 | 24.85925 | 9334 ft | 277 kts | 29° |
| 2026-05-06 21:25 | 58.99605 | 24.87722 | 9042 ft | 274 kts | 29° |
| 2026-05-06 21:25 | 59.01268 | 24.89504 | 8754 ft | 272 kts | 29° |
| 2026-05-06 21:25 | 59.02917 | 24.91273 | 8470 ft | 270 kts | 29° |
| 2026-05-06 21:26 | 59.04551 | 24.93029 | 8195 ft | 267 kts | 29° |
| 2026-05-06 21:26 | 59.06173 | 24.94774 | 7919 ft | 265 kts | 29° |
| 2026-05-06 21:26 | 59.07785 | 24.96509 | 7646 ft | 263 kts | 30° |
| 2026-05-06 21:26 | 59.09383 | 24.98233 | 7367 ft | 262 kts | 30° |
| 2026-05-06 21:27 | 59.10971 | 24.99949 | 7090 ft | 261 kts | 30° |
| 2026-05-06 21:27 | 59.12553 | 25.01657 | 6833 ft | 259 kts | 30° |
| 2026-05-06 21:27 | 59.14126 | 25.03358 | 6560 ft | 258 kts | 30° |
| 2026-05-06 21:27 | 59.15690 | 25.05053 | 6274 ft | 257 kts | 30° |
| 2026-05-06 21:28 | 59.17239 | 25.06732 | 5970 ft | 253 kts | 30° |
| 2026-05-06 21:28 | 59.18762 | 25.08383 | 5713 ft | 248 kts | 30° |
| 2026-05-06 21:28 | 59.20258 | 25.10010 | 5454 ft | 245 kts | 30° |
| 2026-05-06 21:28 | 59.21738 | 25.11622 | 5191 ft | 243 kts | 30° |
| 2026-05-06 21:29 | 59.23208 | 25.13220 | 4932 ft | 241 kts | 30° |
| 2026-05-06 21:29 | 59.24651 | 25.14789 | 4679 ft | 240 kts | 30° |
| 2026-05-06 21:29 | 59.26109 | 25.16382 | 4428 ft | 240 kts | 30° |
| 2026-05-06 21:29 | 59.27572 | 25.17982 | 4153 ft | 241 kts | 30° |
| 2026-05-06 21:30 | 59.29037 | 25.19582 | 3893 ft | 241 kts | 30° |
| 2026-05-06 21:30 | 59.30499 | 25.21181 | 3635 ft | 239 kts | 30° |
| 2026-05-06 21:30 | 59.31924 | 25.22724 | 3580 ft | 229 kts | 27° |
| 2026-05-06 21:30 | 59.33414 | 25.23668 | 3527 ft | 224 kts | 10° |
| 2026-05-06 21:31 | 59.34977 | 25.23878 | 3271 ft | 226 kts | 3° |
| 2026-05-06 21:31 | 59.36556 | 25.23901 | 3011 ft | 226 kts | 2° |
| 2026-05-06 21:31 | 59.38094 | 25.23907 | 2963 ft | 215 kts | 2° |
| 2026-05-06 21:31 | 59.39560 | 25.23905 | 2908 ft | 210 kts | 357° |
| 2026-05-06 21:32 | 59.40904 | 25.22890 | 2706 ft | 211 kts | 316° |
| 2026-05-06 21:32 | 59.41459 | 25.17611 | 2310 ft | 199 kts | 265° |
| 2026-05-06 21:32 | 59.41353 | 25.14957 | 2175 ft | 190 kts | 266° |
| 2026-05-06 21:33 | 59.41294 | 25.12366 | 2193 ft | 190 kts | 269° |
| 2026-05-06 21:33 | 59.41276 | 25.09775 | 2197 ft | 190 kts | 270° |
| 2026-05-06 21:33 | 59.41278 | 25.07182 | 2198 ft | 189 kts | 270° |
| 2026-05-06 21:33 | 59.41283 | 25.04587 | 2197 ft | 190 kts | 270° |
| 2026-05-06 21:34 | 59.41288 | 25.02023 | 2192 ft | 181 kts | 270° |
| 2026-05-06 21:34 | 59.41291 | 24.99662 | 2043 ft | 165 kts | 270° |
| 2026-05-06 21:34 | 59.41294 | 24.97474 | 1813 ft | 158 kts | 270° |
| 2026-05-06 21:34 | 59.41298 | 24.95299 | 1370 ft | 160 kts | 271° |
| 2026-05-06 21:35 | 59.41301 | 24.93119 | 970 ft | 158 kts | 271° |
| 2026-05-06 21:35 | 59.41306 | 24.90978 | 626 ft | 154 kts | 271° |
| 2026-05-06 21:35 | 59.41311 | 24.88900 | 401 ft | 151 kts | 271° |
| 2026-05-06 21:35 | 59.41316 | 24.86849 | 213 ft | 145 kts | 270° |
| 2026-05-06 21:36 | 59.41321 | 24.85233 | 173 ft | 73 kts | 270° |
| 2026-05-06 21:36 | 59.41323 | 24.84835 | 170 ft | 14 kts | 270° |
| 2026-05-06 21:36 | 59.41323 | 24.84251 | 169 ft | 51 kts | 270° |
| 2026-05-06 21:36 | 59.41325 | 24.83572 | 172 ft | 49 kts | 270° |
| 2026-05-06 21:37 | 59.41325 | 24.82918 | 169 ft | 47 kts | 270° |
| 2026-05-06 21:37 | 59.41327 | 24.82284 | 170 ft | 45 kts | 270° |
| 2026-05-06 21:37 | 59.41327 | 24.81670 | 172 ft | 43 kts | 270° |
| 2026-05-06 21:37 | 59.41329 | 24.81084 | 168 ft | 43 kts | 270° |
| 2026-05-06 21:38 | 59.41362 | 24.80629 | 168 ft | 27 kts | 314° |
| 2026-05-06 21:38 | 59.41471 | 24.80474 | 170 ft | 19 kts | 354° |
| 2026-05-06 21:38 | 59.41549 | 24.80444 | 170 ft | 3 kts | 332° |
| 2026-05-06 21:38 | 59.41574 | 24.80415 | 170 ft | 4 kts | 327° |
| 2026-05-06 21:39 | 59.41581 | 24.80405 | 170 ft | 0 kts | 326° |